Terminal Aerodrome Forecast
Issued by NWS

Home | Current Version | Previous Version | Graphics & Text | Print | Product List | Glossary On
Versions: 1 2 3 4 5 6 7 8 9 10 11 12 13 14 15 16 17 18 19 20 21 22
472
FTUS43 KBIS 201720
TAFDIK
TAF
KDIK 201720Z 2018/2118 21010KT P6SM SKC
     FM210300 23017KT P6SM FEW250 WS020/24030KT
     FM210500 27022G31KT P6SM FEW250 WS020/29050KT
     FM210800 29025G35KT P6SM SCT250 WS020/29040KT=

USA.gov is the U.S. government's official web portal to all federal, state and local government web resources and services.